sensor_id;sensor_type;location;lat;lon;timestamp;P1;durP1;ratioP1;P2;durP2;ratioP2
27566;SDS011;15006;48.584;9.186;2023-03-05T00:01:58;66.93;;;31.23;;
27566;SDS011;15006;48.584;9.186;2023-03-05T00:04:26;71.55;;;30.35;;
27566;SDS011;15006;48.584;9.186;2023-03-05T00:06:54;66.78;;;29.77;;
27566;SDS011;15006;48.584;9.186;2023-03-05T00:11:52;71.40;;;30.48;;
27566;SDS011;15006;48.584;9.186;2023-03-05T00:14:19;66.53;;;29.50;;
27566;SDS011;15006;48.584;9.186;2023-03-05T00:16:48;72.85;;;29.90;;
27566;SDS011;15006;48.584;9.186;2023-03-05T00:19:15;62.20;;;28.95;;
27566;SDS011;15006;48.584;9.186;2023-03-05T00:21:42;68.70;;;29.58;;
27566;SDS011;15006;48.584;9.186;2023-03-05T00:24:12;66.88;;;29.90;;
27566;SDS011;15006;48.584;9.186;2023-03-05T00:26:45;70.03;;;31.20;;
27566;SDS011;15006;48.584;9.186;2023-03-05T00:29:17;70.90;;;30.42;;
27566;SDS011;15006;48.584;9.186;2023-03-05T00:31:47;70.93;;;31.33;;
27566;SDS011;15006;48.584;9.186;2023-03-05T00:34:16;71.10;;;31.63;;
27566;SDS011;15006;48.584;9.186;2023-03-05T00:36:49;68.88;;;31.67;;
27566;SDS011;15006;48.584;9.186;2023-03-05T00:39:19;68.22;;;30.58;;
27566;SDS011;15006;48.584;9.186;2023-03-05T00:41:49;74.38;;;31.13;;
27566;SDS011;15006;48.584;9.186;2023-03-05T00:44:17;65.75;;;30.60;;
27566;SDS011;15006;48.584;9.186;2023-03-05T00:46:46;66.82;;;31.73;;
27566;SDS011;15006;48.584;9.186;2023-03-05T00:49:14;76.07;;;32.35;;
27566;SDS011;15006;48.584;9.186;2023-03-05T00:51:43;67.50;;;30.95;;
27566;SDS011;15006;48.584;9.186;2023-03-05T00:54:11;65.95;;;31.90;;
27566;SDS011;15006;48.584;9.186;2023-03-05T00:56:40;67.20;;;31.98;;
27566;SDS011;15006;48.584;9.186;2023-03-05T00:59:08;65.43;;;31.80;;
27566;SDS011;15006;48.584;9.186;2023-03-05T01:01:34;70.15;;;30.95;;
27566;SDS011;15006;48.584;9.186;2023-03-05T01:04:00;64.53;;;32.15;;
27566;SDS011;15006;48.584;9.186;2023-03-05T01:06:27;72.53;;;32.30;;
27566;SDS011;15006;48.584;9.186;2023-03-05T01:08:53;69.80;;;32.22;;
27566;SDS011;15006;48.584;9.186;2023-03-05T01:11:20;65.70;;;30.40;;
27566;SDS011;15006;48.584;9.186;2023-03-05T01:13:46;65.60;;;30.83;;
27566;SDS011;15006;48.584;9.186;2023-03-05T01:16:12;75.28;;;31.23;;
27566;SDS011;15006;48.584;9.186;2023-03-05T01:18:40;64.85;;;31.05;;
27566;SDS011;15006;48.584;9.186;2023-03-05T01:21:06;65.63;;;31.05;;
27566;SDS011;15006;48.584;9.186;2023-03-05T01:23:32;67.13;;;32.30;;
27566;SDS011;15006;48.584;9.186;2023-03-05T01:26:00;68.78;;;31.52;;
27566;SDS011;15006;48.584;9.186;2023-03-05T01:28:26;67.13;;;31.17;;
27566;SDS011;15006;48.584;9.186;2023-03-05T01:30:53;64.88;;;31.27;;
27566;SDS011;15006;48.584;9.186;2023-03-05T01:33:19;70.18;;;31.83;;
27566;SDS011;15006;48.584;9.186;2023-03-05T01:35:45;69.75;;;31.70;;
27566;SDS011;15006;48.584;9.186;2023-03-05T01:38:12;75.20;;;33.47;;
27566;SDS011;15006;48.584;9.186;2023-03-05T01:40:39;69.13;;;31.40;;
27566;SDS011;15006;48.584;9.186;2023-03-05T01:43:29;67.43;;;31.95;;
27566;SDS011;15006;48.584;9.186;2023-03-05T01:48:49;70.65;;;32.35;;
27566;SDS011;15006;48.584;9.186;2023-03-05T01:51:31;65.43;;;30.50;;
27566;SDS011;15006;48.584;9.186;2023-03-05T01:54:05;71.43;;;31.63;;
27566;SDS011;15006;48.584;9.186;2023-03-05T01:56:33;65.15;;;31.50;;
27566;SDS011;15006;48.584;9.186;2023-03-05T01:59:00;61.00;;;30.38;;
27566;SDS011;15006;48.584;9.186;2023-03-05T02:01:36;64.28;;;30.58;;
27566;SDS011;15006;48.584;9.186;2023-03-05T02:04:07;64.35;;;30.58;;
27566;SDS011;15006;48.584;9.186;2023-03-05T02:06:37;68.78;;;32.10;;
27566;SDS011;15006;48.584;9.186;2023-03-05T02:09:07;63.97;;;30.77;;
27566;SDS011;15006;48.584;9.186;2023-03-05T02:11:34;77.97;;;32.55;;
27566;SDS011;15006;48.584;9.186;2023-03-05T02:14:02;64.60;;;32.15;;
27566;SDS011;15006;48.584;9.186;2023-03-05T02:16:28;69.68;;;33.08;;
27566;SDS011;15006;48.584;9.186;2023-03-05T02:19:10;68.38;;;31.92;;
27566;SDS011;15006;48.584;9.186;2023-03-05T02:21:44;74.15;;;31.92;;
27566;SDS011;15006;48.584;9.186;2023-03-05T02:24:14;71.13;;;31.20;;
27566;SDS011;15006;48.584;9.186;2023-03-05T02:26:43;68.43;;;32.08;;
27566;SDS011;15006;48.584;9.186;2023-03-05T02:29:16;67.63;;;31.60;;
27566;SDS011;15006;48.584;9.186;2023-03-05T02:31:43;75.07;;;33.53;;
27566;SDS011;15006;48.584;9.186;2023-03-05T02:34:09;66.68;;;31.35;;
27566;SDS011;15006;48.584;9.186;2023-03-05T02:36:35;67.05;;;30.90;;
27566;SDS011;15006;48.584;9.186;2023-03-05T02:39:02;66.15;;;30.83;;
27566;SDS011;15006;48.584;9.186;2023-03-05T02:41:28;71.35;;;32.00;;
27566;SDS011;15006;48.584;9.186;2023-03-05T02:43:54;66.40;;;30.90;;
27566;SDS011;15006;48.584;9.186;2023-03-05T02:46:20;68.53;;;32.10;;
27566;SDS011;15006;48.584;9.186;2023-03-05T02:48:46;68.25;;;32.40;;
27566;SDS011;15006;48.584;9.186;2023-03-05T02:51:14;60.83;;;30.02;;
27566;SDS011;15006;48.584;9.186;2023-03-05T02:53:40;68.22;;;31.67;;
27566;SDS011;15006;48.584;9.186;2023-03-05T02:56:06;68.90;;;31.50;;
27566;SDS011;15006;48.584;9.186;2023-03-05T02:58:32;64.97;;;31.77;;
27566;SDS011;15006;48.584;9.186;2023-03-05T03:00:58;63.58;;;30.45;;
27566;SDS011;15006;48.584;9.186;2023-03-05T03:03:24;70.70;;;31.13;;
27566;SDS011;15006;48.584;9.186;2023-03-05T03:05:50;71.70;;;31.27;;
27566;SDS011;15006;48.584;9.186;2023-03-05T03:08:16;73.18;;;30.67;;
27566;SDS011;15006;48.584;9.186;2023-03-05T03:10:42;67.75;;;31.33;;
27566;SDS011;15006;48.584;9.186;2023-03-05T03:13:08;68.10;;;31.42;;
27566;SDS011;15006;48.584;9.186;2023-03-05T03:15:34;69.50;;;32.67;;
27566;SDS011;15006;48.584;9.186;2023-03-05T03:18:02;66.68;;;31.52;;
27566;SDS011;15006;48.584;9.186;2023-03-05T03:20:28;75.18;;;32.08;;
27566;SDS011;15006;48.584;9.186;2023-03-05T03:22:54;68.57;;;31.00;;
27566;SDS011;15006;48.584;9.186;2023-03-05T03:25:21;63.65;;;30.40;;
27566;SDS011;15006;48.584;9.186;2023-03-05T03:27:47;66.53;;;31.23;;
27566;SDS011;15006;48.584;9.186;2023-03-05T03:30:14;64.78;;;32.58;;
27566;SDS011;15006;48.584;9.186;2023-03-05T03:32:40;65.05;;;30.70;;
27566;SDS011;15006;48.584;9.186;2023-03-05T03:35:06;65.43;;;30.63;;
27566;SDS011;15006;48.584;9.186;2023-03-05T03:37:33;72.00;;;32.58;;
27566;SDS011;15006;48.584;9.186;2023-03-05T03:39:59;70.45;;;33.03;;
27566;SDS011;15006;48.584;9.186;2023-03-05T03:42:25;68.55;;;31.05;;
27566;SDS011;15006;48.584;9.186;2023-03-05T03:44:51;66.25;;;31.13;;
27566;SDS011;15006;48.584;9.186;2023-03-05T03:47:17;71.50;;;31.50;;
27566;SDS011;15006;48.584;9.186;2023-03-05T03:49:43;69.18;;;32.20;;
27566;SDS011;15006;48.584;9.186;2023-03-05T03:52:09;69.18;;;31.90;;
27566;SDS011;15006;48.584;9.186;2023-03-05T03:54:36;64.38;;;30.23;;
27566;SDS011;15006;48.584;9.186;2023-03-05T03:57:02;68.93;;;31.40;;
27566;SDS011;15006;48.584;9.186;2023-03-05T03:59:28;65.30;;;32.03;;
27566;SDS011;15006;48.584;9.186;2023-03-05T04:01:54;70.25;;;32.47;;
27566;SDS011;15006;48.584;9.186;2023-03-05T04:04:23;72.95;;;32.95;;
27566;SDS011;15006;48.584;9.186;2023-03-05T04:06:50;65.13;;;31.15;;
27566;SDS011;15006;48.584;9.186;2023-03-05T04:09:16;63.88;;;30.80;;
27566;SDS011;15006;48.584;9.186;2023-03-05T04:11:42;70.95;;;32.40;;
27566;SDS011;15006;48.584;9.186;2023-03-05T04:14:08;68.38;;;31.35;;
27566;SDS011;15006;48.584;9.186;2023-03-05T04:16:34;68.75;;;32.15;;
27566;SDS011;15006;48.584;9.186;2023-03-05T04:19:00;70.55;;;31.70;;
27566;SDS011;15006;48.584;9.186;2023-03-05T04:21:26;68.45;;;31.75;;
27566;SDS011;15006;48.584;9.186;2023-03-05T04:23:54;63.65;;;31.38;;
27566;SDS011;15006;48.584;9.186;2023-03-05T04:26:19;66.25;;;31.67;;
27566;SDS011;15006;48.584;9.186;2023-03-05T04:28:48;67.72;;;30.73;;
27566;SDS011;15006;48.584;9.186;2023-03-05T04:31:14;73.38;;;31.20;;
27566;SDS011;15006;48.584;9.186;2023-03-05T04:33:41;70.03;;;32.55;;
27566;SDS011;15006;48.584;9.186;2023-03-05T04:36:07;74.70;;;32.20;;
27566;SDS011;15006;48.584;9.186;2023-03-05T04:38:33;72.15;;;32.47;;
27566;SDS011;15006;48.584;9.186;2023-03-05T04:40:59;68.80;;;30.80;;
27566;SDS011;15006;48.584;9.186;2023-03-05T04:43:26;69.90;;;32.15;;
27566;SDS011;15006;48.584;9.186;2023-03-05T04:45:53;74.60;;;32.00;;
27566;SDS011;15006;48.584;9.186;2023-03-05T04:48:20;70.57;;;30.63;;
27566;SDS011;15006;48.584;9.186;2023-03-05T04:50:46;72.20;;;31.23;;
27566;SDS011;15006;48.584;9.186;2023-03-05T04:53:12;66.93;;;31.10;;
27566;SDS011;15006;48.584;9.186;2023-03-05T04:55:38;66.22;;;31.40;;
27566;SDS011;15006;48.584;9.186;2023-03-05T04:58:04;70.65;;;31.33;;
27566;SDS011;15006;48.584;9.186;2023-03-05T05:00:30;65.82;;;30.35;;
27566;SDS011;15006;48.584;9.186;2023-03-05T05:02:56;72.63;;;32.80;;
27566;SDS011;15006;48.584;9.186;2023-03-05T05:05:23;67.90;;;31.13;;
27566;SDS011;15006;48.584;9.186;2023-03-05T05:07:53;66.33;;;30.63;;
27566;SDS011;15006;48.584;9.186;2023-03-05T05:10:20;66.78;;;30.90;;
27566;SDS011;15006;48.584;9.186;2023-03-05T05:12:47;67.50;;;29.23;;
27566;SDS011;15006;48.584;9.186;2023-03-05T05:15:13;73.03;;;32.60;;
27566;SDS011;15006;48.584;9.186;2023-03-05T05:17:39;69.55;;;30.92;;
27566;SDS011;15006;48.584;9.186;2023-03-05T05:20:06;61.85;;;30.50;;
27566;SDS011;15006;48.584;9.186;2023-03-05T05:22:36;70.10;;;31.13;;
27566;SDS011;15006;48.584;9.186;2023-03-05T05:25:02;70.63;;;29.75;;
27566;SDS011;15006;48.584;9.186;2023-03-05T05:27:29;72.22;;;32.35;;
27566;SDS011;15006;48.584;9.186;2023-03-05T05:29:55;63.30;;;31.13;;
27566;SDS011;15006;48.584;9.186;2023-03-05T05:32:21;69.72;;;31.23;;
27566;SDS011;15006;48.584;9.186;2023-03-05T05:34:52;68.50;;;31.33;;
27566;SDS011;15006;48.584;9.186;2023-03-05T05:37:20;65.20;;;30.40;;
27566;SDS011;15006;48.584;9.186;2023-03-05T05:39:46;60.92;;;30.58;;
27566;SDS011;15006;48.584;9.186;2023-03-05T05:42:18;63.53;;;30.95;;
27566;SDS011;15006;48.584;9.186;2023-03-05T05:44:46;72.45;;;31.25;;
27566;SDS011;15006;48.584;9.186;2023-03-05T05:47:13;72.78;;;31.40;;
27566;SDS011;15006;48.584;9.186;2023-03-05T05:49:41;70.00;;;30.92;;
27566;SDS011;15006;48.584;9.186;2023-03-05T05:52:07;63.42;;;30.80;;
27566;SDS011;15006;48.584;9.186;2023-03-05T05:54:33;68.20;;;29.83;;
27566;SDS011;15006;48.584;9.186;2023-03-05T05:56:59;68.75;;;30.73;;
27566;SDS011;15006;48.584;9.186;2023-03-05T05:59:25;71.70;;;30.63;;
27566;SDS011;15006;48.584;9.186;2023-03-05T06:01:51;66.50;;;31.33;;
27566;SDS011;15006;48.584;9.186;2023-03-05T06:04:17;66.05;;;30.60;;
27566;SDS011;15006;48.584;9.186;2023-03-05T06:06:43;70.63;;;32.90;;
27566;SDS011;15006;48.584;9.186;2023-03-05T06:09:09;69.10;;;30.83;;
27566;SDS011;15006;48.584;9.186;2023-03-05T06:11:36;65.40;;;31.80;;
27566;SDS011;15006;48.584;9.186;2023-03-05T06:14:02;67.28;;;31.67;;
27566;SDS011;15006;48.584;9.186;2023-03-05T06:16:28;69.95;;;33.17;;
27566;SDS011;15006;48.584;9.186;2023-03-05T06:18:55;66.30;;;31.58;;
27566;SDS011;15006;48.584;9.186;2023-03-05T06:21:21;69.40;;;32.03;;
27566;SDS011;15006;48.584;9.186;2023-03-05T06:23:48;65.85;;;30.52;;
27566;SDS011;15006;48.584;9.186;2023-03-05T06:26:15;64.50;;;31.13;;
27566;SDS011;15006;48.584;9.186;2023-03-05T06:28:44;72.13;;;32.20;;
27566;SDS011;15006;48.584;9.186;2023-03-05T06:31:11;74.22;;;32.50;;
27566;SDS011;15006;48.584;9.186;2023-03-05T06:33:43;69.70;;;31.83;;
27566;SDS011;15006;48.584;9.186;2023-03-05T06:36:11;70.15;;;31.55;;
27566;SDS011;15006;48.584;9.186;2023-03-05T06:41:08;64.97;;;30.85;;
27566;SDS011;15006;48.584;9.186;2023-03-05T06:43:40;67.25;;;30.63;;
27566;SDS011;15006;48.584;9.186;2023-03-05T06:46:16;65.10;;;31.45;;
27566;SDS011;15006;48.584;9.186;2023-03-05T06:48:58;70.70;;;32.17;;
27566;SDS011;15006;48.584;9.186;2023-03-05T06:51:30;68.28;;;32.58;;
27566;SDS011;15006;48.584;9.186;2023-03-05T06:54:00;67.07;;;30.92;;
27566;SDS011;15006;48.584;9.186;2023-03-05T06:56:29;67.40;;;31.67;;
27566;SDS011;15006;48.584;9.186;2023-03-05T06:58:56;70.00;;;31.90;;
27566;SDS011;15006;48.584;9.186;2023-03-05T07:01:22;66.93;;;31.02;;
27566;SDS011;15006;48.584;9.186;2023-03-05T07:03:49;60.22;;;29.02;;
27566;SDS011;15006;48.584;9.186;2023-03-05T07:06:17;66.70;;;30.30;;
27566;SDS011;15006;48.584;9.186;2023-03-05T07:08:44;66.28;;;30.15;;
27566;SDS011;15006;48.584;9.186;2023-03-05T07:11:10;64.68;;;30.52;;
27566;SDS011;15006;48.584;9.186;2023-03-05T07:13:44;64.55;;;29.95;;
27566;SDS011;15006;48.584;9.186;2023-03-05T07:16:15;57.25;;;28.70;;
27566;SDS011;15006;48.584;9.186;2023-03-05T07:18:47;61.40;;;30.60;;
27566;SDS011;15006;48.584;9.186;2023-03-05T07:21:15;72.32;;;30.05;;
27566;SDS011;15006;48.584;9.186;2023-03-05T07:23:46;70.00;;;30.90;;
27566;SDS011;15006;48.584;9.186;2023-03-05T07:26:13;66.63;;;30.65;;
27566;SDS011;15006;48.584;9.186;2023-03-05T07:28:40;68.03;;;32.55;;
27566;SDS011;15006;48.584;9.186;2023-03-05T07:31:09;61.33;;;30.00;;
27566;SDS011;15006;48.584;9.186;2023-03-05T07:33:38;64.43;;;30.45;;
27566;SDS011;15006;48.584;9.186;2023-03-05T07:36:08;64.25;;;30.42;;
27566;SDS011;15006;48.584;9.186;2023-03-05T07:38:35;64.07;;;30.05;;
27566;SDS011;15006;48.584;9.186;2023-03-05T07:41:02;70.43;;;32.10;;
27566;SDS011;15006;48.584;9.186;2023-03-05T07:43:30;65.18;;;31.33;;
27566;SDS011;15006;48.584;9.186;2023-03-05T07:45:56;61.17;;;29.30;;
27566;SDS011;15006;48.584;9.186;2023-03-05T07:48:22;64.88;;;31.15;;
27566;SDS011;15006;48.584;9.186;2023-03-05T07:50:48;69.63;;;30.73;;
27566;SDS011;15006;48.584;9.186;2023-03-05T07:53:15;66.55;;;30.02;;
27566;SDS011;15006;48.584;9.186;2023-03-05T07:55:44;72.28;;;31.75;;
27566;SDS011;15006;48.584;9.186;2023-03-05T07:58:12;64.70;;;31.70;;
27566;SDS011;15006;48.584;9.186;2023-03-05T08:00:38;62.95;;;30.70;;
27566;SDS011;15006;48.584;9.186;2023-03-05T08:03:05;68.45;;;31.40;;
27566;SDS011;15006;48.584;9.186;2023-03-05T08:05:31;73.95;;;36.53;;
27566;SDS011;15006;48.584;9.186;2023-03-05T08:07:58;67.00;;;31.58;;
27566;SDS011;15006;48.584;9.186;2023-03-05T08:10:24;62.10;;;31.85;;
27566;SDS011;15006;48.584;9.186;2023-03-05T08:12:50;72.00;;;32.45;;
27566;SDS011;15006;48.584;9.186;2023-03-05T08:15:16;61.80;;;29.85;;
27566;SDS011;15006;48.584;9.186;2023-03-05T08:17:42;58.60;;;29.75;;
27566;SDS011;15006;48.584;9.186;2023-03-05T08:20:08;66.50;;;30.38;;
27566;SDS011;15006;48.584;9.186;2023-03-05T08:22:36;64.93;;;31.40;;
27566;SDS011;15006;48.584;9.186;2023-03-05T08:25:03;63.88;;;30.65;;
27566;SDS011;15006;48.584;9.186;2023-03-05T08:27:30;60.45;;;29.88;;
27566;SDS011;15006;48.584;9.186;2023-03-05T08:29:56;67.25;;;31.45;;
27566;SDS011;15006;48.584;9.186;2023-03-05T08:32:22;63.95;;;29.48;;
27566;SDS011;15006;48.584;9.186;2023-03-05T08:34:48;64.35;;;32.45;;
27566;SDS011;15006;48.584;9.186;2023-03-05T08:37:14;65.35;;;30.02;;
27566;SDS011;15006;48.584;9.186;2023-03-05T08:39:40;70.70;;;30.60;;
27566;SDS011;15006;48.584;9.186;2023-03-05T08:42:09;65.95;;;30.30;;
27566;SDS011;15006;48.584;9.186;2023-03-05T08:44:35;60.28;;;30.17;;
27566;SDS011;15006;48.584;9.186;2023-03-05T08:47:01;62.33;;;29.85;;
27566;SDS011;15006;48.584;9.186;2023-03-05T08:49:27;63.03;;;30.45;;
27566;SDS011;15006;48.584;9.186;2023-03-05T08:51:53;59.50;;;28.83;;
27566;SDS011;15006;48.584;9.186;2023-03-05T08:54:19;63.60;;;29.92;;
27566;SDS011;15006;48.584;9.186;2023-03-05T08:56:45;58.67;;;29.10;;
27566;SDS011;15006;48.584;9.186;2023-03-05T08:59:11;56.67;;;27.88;;
27566;SDS011;15006;48.584;9.186;2023-03-05T09:01:37;63.60;;;29.73;;
27566;SDS011;15006;48.584;9.186;2023-03-05T09:04:03;60.42;;;29.13;;
27566;SDS011;15006;48.584;9.186;2023-03-05T09:06:29;64.55;;;29.58;;
27566;SDS011;15006;48.584;9.186;2023-03-05T09:08:54;56.80;;;27.92;;
27566;SDS011;15006;48.584;9.186;2023-03-05T09:11:20;51.40;;;26.90;;
27566;SDS011;15006;48.584;9.186;2023-03-05T09:13:46;60.10;;;29.50;;
27566;SDS011;15006;48.584;9.186;2023-03-05T09:16:14;58.10;;;28.58;;
27566;SDS011;15006;48.584;9.186;2023-03-05T09:18:41;56.28;;;28.05;;
27566;SDS011;15006;48.584;9.186;2023-03-05T09:21:09;55.63;;;27.63;;
27566;SDS011;15006;48.584;9.186;2023-03-05T09:23:38;50.55;;;25.88;;
27566;SDS011;15006;48.584;9.186;2023-03-05T09:26:05;53.90;;;26.60;;
27566;SDS011;15006;48.584;9.186;2023-03-05T09:28:36;56.78;;;26.70;;
27566;SDS011;15006;48.584;9.186;2023-03-05T09:31:04;48.00;;;25.05;;
27566;SDS011;15006;48.584;9.186;2023-03-05T09:33:31;50.83;;;26.05;;
27566;SDS011;15006;48.584;9.186;2023-03-05T09:35:58;50.53;;;24.70;;
27566;SDS011;15006;48.584;9.186;2023-03-05T09:38:25;47.72;;;24.13;;
27566;SDS011;15006;48.584;9.186;2023-03-05T09:46:38;47.45;;;24.52;;
27566;SDS011;15006;48.584;9.186;2023-03-05T09:49:38;44.15;;;22.73;;
27566;SDS011;15006;48.584;9.186;2023-03-05T09:54:59;42.42;;;22.63;;
27566;SDS011;15006;48.584;9.186;2023-03-05T09:57:33;45.17;;;22.50;;
27566;SDS011;15006;48.584;9.186;2023-03-05T10:00:53;41.70;;;21.65;;
27566;SDS011;15006;48.584;9.186;2023-03-05T10:03:28;38.58;;;21.25;;
27566;SDS011;15006;48.584;9.186;2023-03-05T10:06:13;37.25;;;20.73;;
27566;SDS011;15006;48.584;9.186;2023-03-05T10:14:03;34.00;;;19.67;;
27566;SDS011;15006;48.584;9.186;2023-03-05T10:16:52;39.95;;;20.55;;
27566;SDS011;15006;48.584;9.186;2023-03-05T10:22:28;34.30;;;18.77;;
27566;SDS011;15006;48.584;9.186;2023-03-05T10:25:02;35.55;;;20.77;;
27566;SDS011;15006;48.584;9.186;2023-03-05T10:27:58;33.25;;;18.55;;
27566;SDS011;15006;48.584;9.186;2023-03-05T10:33:34;31.35;;;18.42;;
27566;SDS011;15006;48.584;9.186;2023-03-05T10:39:50;27.63;;;16.75;;
27566;SDS011;15006;48.584;9.186;2023-03-05T10:42:27;28.73;;;17.30;;
27566;SDS011;15006;48.584;9.186;2023-03-05T10:45:17;30.48;;;17.85;;
27566;SDS011;15006;48.584;9.186;2023-03-05T10:51:18;30.80;;;17.95;;
27566;SDS011;15006;48.584;9.186;2023-03-05T10:54:08;33.28;;;17.35;;
27566;SDS011;15006;48.584;9.186;2023-03-05T10:57:02;33.95;;;17.58;;
27566;SDS011;15006;48.584;9.186;2023-03-05T10:59:37;33.47;;;18.10;;
27566;SDS011;15006;48.584;9.186;2023-03-05T11:02:10;29.83;;;16.80;;
27566;SDS011;15006;48.584;9.186;2023-03-05T11:04:37;32.30;;;17.55;;
27566;SDS011;15006;48.584;9.186;2023-03-05T11:07:07;28.27;;;16.45;;
27566;SDS011;15006;48.584;9.186;2023-03-05T11:12:27;31.80;;;17.38;;
27566;SDS011;15006;48.584;9.186;2023-03-05T11:15:03;37.33;;;17.20;;
27566;SDS011;15006;48.584;9.186;2023-03-05T11:18:06;33.10;;;17.33;;
27566;SDS011;15006;48.584;9.186;2023-03-05T11:20:43;30.88;;;16.45;;
27566;SDS011;15006;48.584;9.186;2023-03-05T11:23:16;30.15;;;16.45;;
27566;SDS011;15006;48.584;9.186;2023-03-05T11:25:58;30.40;;;17.50;;
27566;SDS011;15006;48.584;9.186;2023-03-05T11:31:27;32.40;;;18.38;;
27566;SDS011;15006;48.584;9.186;2023-03-05T11:34:00;33.55;;;18.30;;
27566;SDS011;15006;48.584;9.186;2023-03-05T11:36:35;33.20;;;17.88;;
27566;SDS011;15006;48.584;9.186;2023-03-05T11:39:25;29.55;;;17.05;;
27566;SDS011;15006;48.584;9.186;2023-03-05T11:41:58;30.45;;;17.90;;
27566;SDS011;15006;48.584;9.186;2023-03-05T11:44:48;32.72;;;17.73;;
27566;SDS011;15006;48.584;9.186;2023-03-05T11:52:44;34.28;;;18.33;;
27566;SDS011;15006;48.584;9.186;2023-03-05T11:55:17;31.25;;;17.95;;
27566;SDS011;15006;48.584;9.186;2023-03-05T12:01:14;33.70;;;18.27;;
27566;SDS011;15006;48.584;9.186;2023-03-05T12:03:46;31.48;;;17.08;;
27566;SDS011;15006;48.584;9.186;2023-03-05T12:06:34;29.83;;;17.90;;
27566;SDS011;15006;48.584;9.186;2023-03-05T12:09:06;31.67;;;18.35;;
27566;SDS011;15006;48.584;9.186;2023-03-05T12:12:09;30.23;;;17.50;;
27566;SDS011;15006;48.584;9.186;2023-03-05T12:23:16;27.98;;;17.40;;
27566;SDS011;15006;48.584;9.186;2023-03-05T12:25:46;30.33;;;17.80;;
27566;SDS011;15006;48.584;9.186;2023-03-05T12:28:17;30.65;;;18.25;;
27566;SDS011;15006;48.584;9.186;2023-03-05T12:37:03;33.97;;;17.90;;
27566;SDS011;15006;48.584;9.186;2023-03-05T13:00:46;29.85;;;16.85;;
27566;SDS011;15006;48.584;9.186;2023-03-05T13:03:36;40.33;;;17.55;;
27566;SDS011;15006;48.584;9.186;2023-03-05T13:06:38;31.88;;;18.30;;
27566;SDS011;15006;48.584;9.186;2023-03-05T13:11:45;35.47;;;18.63;;
27566;SDS011;15006;48.584;9.186;2023-03-05T13:14:24;32.38;;;18.83;;
27566;SDS011;15006;48.584;9.186;2023-03-05T13:17:01;33.65;;;18.55;;
27566;SDS011;15006;48.584;9.186;2023-03-05T13:19:54;34.03;;;19.70;;
27566;SDS011;15006;48.584;9.186;2023-03-05T13:22:21;31.73;;;19.52;;
27566;SDS011;15006;48.584;9.186;2023-03-05T13:27:44;34.88;;;19.52;;
27566;SDS011;15006;48.584;9.186;2023-03-05T13:30:21;34.05;;;19.05;;
27566;SDS011;15006;48.584;9.186;2023-03-05T13:32:50;32.53;;;18.58;;
27566;SDS011;15006;48.584;9.186;2023-03-05T13:35:20;36.25;;;21.48;;
27566;SDS011;15006;48.584;9.186;2023-03-05T13:37:46;40.17;;;22.65;;
27566;SDS011;15006;48.584;9.186;2023-03-05T13:40:30;37.95;;;21.10;;
27566;SDS011;15006;48.584;9.186;2023-03-05T13:43:15;33.53;;;19.35;;
27566;SDS011;15006;48.584;9.186;2023-03-05T13:45:46;35.67;;;18.63;;
27566;SDS011;15006;48.584;9.186;2023-03-05T13:48:19;39.88;;;20.80;;
27566;SDS011;15006;48.584;9.186;2023-03-05T13:50:45;30.27;;;18.50;;
27566;SDS011;15006;48.584;9.186;2023-03-05T13:53:15;31.75;;;18.50;;
27566;SDS011;15006;48.584;9.186;2023-03-05T13:55:45;29.80;;;17.45;;
27566;SDS011;15006;48.584;9.186;2023-03-05T14:01:30;40.30;;;25.27;;
27566;SDS011;15006;48.584;9.186;2023-03-05T14:06:52;38.65;;;21.05;;
27566;SDS011;15006;48.584;9.186;2023-03-05T14:09:28;33.88;;;19.30;;
27566;SDS011;15006;48.584;9.186;2023-03-05T14:12:19;32.78;;;18.08;;
27566;SDS011;15006;48.584;9.186;2023-03-05T14:15:04;31.05;;;18.50;;
27566;SDS011;15006;48.584;9.186;2023-03-05T14:17:51;30.50;;;18.38;;
27566;SDS011;15006;48.584;9.186;2023-03-05T14:23:01;45.92;;;21.88;;
27566;SDS011;15006;48.584;9.186;2023-03-05T14:29:12;37.33;;;19.75;;
27566;SDS011;15006;48.584;9.186;2023-03-05T14:34:21;30.77;;;18.25;;
27566;SDS011;15006;48.584;9.186;2023-03-05T14:36:56;30.63;;;17.92;;
27566;SDS011;15006;48.584;9.186;2023-03-05T14:39:37;33.00;;;18.65;;
27566;SDS011;15006;48.584;9.186;2023-03-05T14:44:54;31.67;;;18.75;;
27566;SDS011;15006;48.584;9.186;2023-03-05T14:47:24;32.00;;;18.60;;
27566;SDS011;15006;48.584;9.186;2023-03-05T14:49:54;30.38;;;18.00;;
27566;SDS011;15006;48.584;9.186;2023-03-05T14:52:21;32.53;;;18.60;;
27566;SDS011;15006;48.584;9.186;2023-03-05T14:54:48;31.00;;;18.63;;
27566;SDS011;15006;48.584;9.186;2023-03-05T14:57:24;35.20;;;18.45;;
27566;SDS011;15006;48.584;9.186;2023-03-05T14:59:53;32.65;;;19.00;;
27566;SDS011;15006;48.584;9.186;2023-03-05T15:02:20;35.80;;;18.85;;
27566;SDS011;15006;48.584;9.186;2023-03-05T15:04:49;27.85;;;17.75;;
27566;SDS011;15006;48.584;9.186;2023-03-05T15:07:16;34.47;;;17.95;;
27566;SDS011;15006;48.584;9.186;2023-03-05T15:09:45;25.73;;;14.37;;
27566;SDS011;15006;48.584;9.186;2023-03-05T15:12:12;29.13;;;16.75;;
27566;SDS011;15006;48.584;9.186;2023-03-05T15:14:40;29.30;;;16.75;;
27566;SDS011;15006;48.584;9.186;2023-03-05T15:17:12;30.75;;;16.58;;
27566;SDS011;15006;48.584;9.186;2023-03-05T15:19:42;29.45;;;18.27;;
27566;SDS011;15006;48.584;9.186;2023-03-05T15:22:10;30.70;;;17.65;;
27566;SDS011;15006;48.584;9.186;2023-03-05T15:24:36;30.52;;;17.73;;
27566;SDS011;15006;48.584;9.186;2023-03-05T15:27:02;35.60;;;18.90;;
27566;SDS011;15006;48.584;9.186;2023-03-05T15:29:30;29.42;;;18.27;;
27566;SDS011;15006;48.584;9.186;2023-03-05T15:31:56;33.08;;;17.92;;
27566;SDS011;15006;48.584;9.186;2023-03-05T15:34:22;30.80;;;18.27;;
27566;SDS011;15006;48.584;9.186;2023-03-05T15:36:48;33.63;;;17.98;;
27566;SDS011;15006;48.584;9.186;2023-03-05T15:39:14;33.47;;;17.88;;
27566;SDS011;15006;48.584;9.186;2023-03-05T15:41:40;30.35;;;18.75;;
27566;SDS011;15006;48.584;9.186;2023-03-05T15:44:06;33.90;;;17.88;;
27566;SDS011;15006;48.584;9.186;2023-03-05T15:46:33;32.38;;;18.67;;
27566;SDS011;15006;48.584;9.186;2023-03-05T15:49:00;32.67;;;18.38;;
27566;SDS011;15006;48.584;9.186;2023-03-05T15:51:27;29.00;;;18.75;;
27566;SDS011;15006;48.584;9.186;2023-03-05T15:53:53;38.20;;;19.63;;
27566;SDS011;15006;48.584;9.186;2023-03-05T15:56:19;33.20;;;19.20;;
27566;SDS011;15006;48.584;9.186;2023-03-05T15:58:47;35.15;;;19.10;;
27566;SDS011;15006;48.584;9.186;2023-03-05T16:01:14;37.40;;;18.67;;
27566;SDS011;15006;48.584;9.186;2023-03-05T16:03:43;37.60;;;20.67;;
27566;SDS011;15006;48.584;9.186;2023-03-05T16:06:13;30.45;;;18.63;;
27566;SDS011;15006;48.584;9.186;2023-03-05T16:08:41;33.45;;;19.30;;
27566;SDS011;15006;48.584;9.186;2023-03-05T16:11:09;40.10;;;19.10;;
27566;SDS011;15006;48.584;9.186;2023-03-05T16:13:35;33.40;;;18.77;;
27566;SDS011;15006;48.584;9.186;2023-03-05T16:16:02;35.00;;;18.67;;
27566;SDS011;15006;48.584;9.186;2023-03-05T16:18:30;34.80;;;19.77;;
27566;SDS011;15006;48.584;9.186;2023-03-05T16:20:59;37.20;;;20.30;;
27566;SDS011;15006;48.584;9.186;2023-03-05T16:23:26;32.78;;;20.40;;
27566;SDS011;15006;48.584;9.186;2023-03-05T16:25:52;36.15;;;19.98;;